Time;durP1;ratioP1;P1;durP2;ratioP2;P2;SDS_P1;SDS_P2;PMS_P1;PMS_P2;Temp;Humidity;BMP_temperature;BMP_pressure;BME280_temperature;BME280_humidity;BME280_pressure;Samples;Min_cycle;Max_cycle;Signal;HPM_P1;HPM_P2
2023/09/22 00:02:18;;;;;;;11.13;6.00;;;;;;;20.74;88.54;94951.88;5074744;28;20445;-79
2023/09/22 00:04:44;;;;;;;14.23;5.97;;;;;;;20.82;88.81;94953.59;5093843;28;20521;-79
2023/09/22 00:07:13;;;;;;;8.37;6.53;;;;;;;20.79;87.84;94933.44;5093698;28;20489;-80
2023/09/22 00:09:39;;;;;;;9.10;5.53;;;;;;;20.64;87.79;94941.53;5093236;28;20476;-79
2023/09/22 00:12:08;;;;;;;13.23;6.40;;;;;;;20.86;88.42;94942.34;5093434;28;20437;-79
2023/09/22 00:14:35;;;;;;;6.50;5.20;;;;;;;20.94;87.16;94928.88;5093292;28;20444;-80
2023/09/22 00:17:02;;;;;;;7.57;6.10;;;;;;;21.08;86.23;94934.28;5093849;28;20450;-79
2023/09/22 00:19:29;;;;;;;6.53;5.27;;;;;;;21.23;85.78;94957.25;5093542;28;20438;-79
2023/09/22 00:21:57;;;;;;;10.80;6.80;;;;;;;21.32;85.43;94977.44;5093082;28;20480;-80
2023/09/22 00:24:24;;;;;;;7.17;5.50;;;;;;;21.45;85.00;94959.88;5074615;28;20444;-79
2023/09/22 00:26:51;;;;;;;8.60;5.63;;;;;;;21.56;83.62;94946.78;5093519;28;20446;-80
2023/09/22 00:29:18;;;;;;;6.10;5.50;;;;;;;21.24;84.04;94952.72;5093131;28;20490;-80
2023/09/22 00:31:45;;;;;;;6.40;5.23;;;;;;;21.32;84.63;94958.75;5092767;28;20437;-79
2023/09/22 00:34:12;;;;;;;5.63;5.10;;;;;;;21.26;84.26;94948.03;5074485;28;20455;-79
2023/09/22 00:36:42;;;;;;;7.43;5.77;;;;;;;21.44;84.46;94959.06;5093205;28;20499;-79
2023/09/22 00:39:09;;;;;;;7.63;5.30;;;;;;;21.50;84.64;94947.59;5093449;28;20433;-79
2023/09/22 00:41:37;;;;;;;6.40;5.47;;;;;;;21.56;84.49;94930.78;5093328;28;20490;-79
2023/09/22 00:44:04;;;;;;;12.77;5.80;;;;;;;21.57;84.59;94936.94;5093396;28;20516;-79
2023/09/22 00:46:31;;;;;;;7.40;5.40;;;;;;;21.60;83.99;94937.38;5091714;28;20957;-78
2023/09/22 00:48:58;;;;;;;8.27;5.40;;;;;;;21.68;83.92;94931.03;5093107;28;20837;-79
2023/09/22 00:51:25;;;;;;;6.80;5.27;;;;;;;21.70;84.08;94926.34;5093169;28;20445;-79
2023/09/22 00:53:53;;;;;;;9.47;5.80;;;;;;;21.74;84.49;94926.78;5092838;28;20446;-79
2023/09/22 00:56:21;;;;;;;13.70;5.97;;;;;;;21.80;84.15;94902.75;5093169;28;20487;-79
2023/09/22 00:58:50;;;;;;;7.30;5.07;;;;;;;21.76;84.38;94922.88;5093168;28;20486;-80
2023/09/22 01:01:18;;;;;;;8.57;5.63;;;;;;;21.71;85.42;94884.44;5092598;28;20516;-80
2023/09/22 01:03:45;;;;;;;8.10;5.00;;;;;;;21.13;86.50;94841.16;5093009;28;20445;-79
2023/09/22 01:06:12;;;;;;;9.43;6.73;;;;;;;21.24;87.36;94875.34;5092682;28;20449;-80
2023/09/22 01:08:39;;;;;;;12.23;5.77;;;;;;;21.33;89.50;94877.63;5092559;28;20510;-80
2023/09/22 01:11:05;;;;;;;18.87;5.77;;;;;;;21.43;90.01;94877.31;5093675;28;20473;-80
2023/09/22 01:13:32;;;;;;;6.33;5.70;;;;;;;21.46;88.93;94884.91;5096246;28;20451;-79
2023/09/22 01:16:01;;;;;;;7.20;5.33;;;;;;;21.49;89.17;94876.50;5096534;28;20481;-79
2023/09/22 01:18:28;;;;;;;7.07;5.60;;;;;;;21.52;89.05;94886.78;5096688;28;20438;-79
2023/09/22 01:20:58;;;;;;;8.80;5.67;;;;;;;21.31;89.39;94885.03;5096089;28;20845;-79
2023/09/22 01:23:26;;;;;;;6.40;4.97;;;;;;;21.17;90.45;94887.78;5096601;28;20457;-79
2023/09/22 01:25:53;;;;;;;7.87;6.20;;;;;;;20.86;92.12;94886.34;5096169;28;20520;-79
2023/09/22 01:28:20;;;;;;;9.20;6.17;;;;;;;20.68;92.46;94892.13;5076859;28;20451;-79
2023/09/22 01:30:49;;;;;;;9.93;5.83;;;;;;;20.70;93.84;94905.25;5095796;28;20453;-79
2023/09/22 01:33:16;;;;;;;13.07;6.70;;;;;;;20.80;93.95;94908.41;5096391;28;20455;-80
2023/09/22 01:35:43;;;;;;;10.07;5.90;;;;;;;20.88;94.60;94910.97;5096237;28;20452;-80
2023/09/22 01:38:13;;;;;;;8.23;5.33;;;;;;;21.03;94.86;94925.03;5096425;28;20495;-80
2023/09/22 01:40:41;;;;;;;10.53;5.40;;;;;;;21.13;94.02;94914.03;5095760;28;20455;-79
2023/09/22 01:43:08;;;;;;;9.40;6.07;;;;;;;21.26;94.08;94918.66;5095940;28;20934;-79
2023/09/22 01:45:35;;;;;;;7.47;5.27;;;;;;;21.27;93.19;94915.78;5096268;28;20433;-78
2023/09/22 01:48:07;;;;;;;12.03;6.20;;;;;;;21.31;92.78;94909.03;5095946;28;20449;-80
2023/09/22 01:50:37;;;;;;;7.07;6.10;;;;;;;21.31;92.59;94910.88;5095789;28;20445;-80
2023/09/22 01:53:04;;;;;;;9.67;5.57;;;;;;;21.21;92.22;94910.38;5096002;28;20503;-79
2023/09/22 01:55:31;;;;;;;15.33;5.03;;;;;;;21.20;92.30;94900.72;5095865;28;20451;-79
2023/09/22 01:57:59;;;;;;;10.50;5.60;;;;;;;21.24;92.42;94888.69;5095647;28;20472;-79
2023/09/22 02:00:26;;;;;;;9.83;5.00;;;;;;;21.26;92.08;94871.44;5096278;28;20447;-80
2023/09/22 02:02:53;;;;;;;11.43;5.00;;;;;;;21.25;91.70;94850.28;5095589;28;20866;-79
2023/09/22 02:05:20;;;;;;;6.67;4.90;;;;;;;21.23;91.70;94850.50;5096096;28;20502;-78
2023/09/22 02:07:47;;;;;;;8.80;5.63;;;;;;;20.97;92.69;94855.63;5076960;28;20456;-79
2023/09/22 02:10:15;;;;;;;14.00;5.40;;;;;;;20.86;93.77;94870.31;5076696;28;20486;-79
2023/09/22 02:12:44;;;;;;;8.10;4.60;;;;;;;20.82;94.17;94873.56;5095668;28;20452;-79
2023/09/22 02:15:13;;;;;;;10.00;5.40;;;;;;;20.79;94.30;94880.09;5095587;28;20986;-79
2023/09/22 02:17:41;;;;;;;6.03;5.17;;;;;;;20.79;94.31;94879.28;5095556;28;20919;-78
2023/09/22 02:20:17;;;;;;;9.40;5.03;;;;;;;20.74;94.21;94877.19;5095916;28;20448;-79
2023/09/22 02:22:46;;;;;;;12.80;5.20;;;;;;;20.59;93.98;94871.13;5094470;28;20492;-79
2023/09/22 02:25:13;;;;;;;10.17;6.17;;;;;;;20.28;95.36;94874.09;5095626;28;20448;-79
2023/09/22 02:27:40;;;;;;;11.23;6.10;;;;;;;19.98;97.97;94868.84;5095106;28;20455;-79
2023/09/22 02:30:08;;;;;;;7.10;5.90;;;;;;;20.01;98.72;94868.47;5076683;28;20775;-79
2023/09/22 02:32:37;;;;;;;16.40;6.67;;;;;;;20.11;98.64;94866.31;5095447;28;20533;-79
2023/09/22 02:35:04;;;;;;;9.77;6.73;;;;;;;19.85;99.51;94876.69;5095347;28;20444;-79
2023/09/22 02:37:31;;;;;;;11.03;6.60;;;;;;;19.46;100.00;94869.84;5094997;28;20819;-79
2023/09/22 02:39:58;;;;;;;16.80;6.83;;;;;;;19.66;100.00;94862.13;5095315;28;20435;-79
2023/09/22 02:42:26;;;;;;;8.93;6.80;;;;;;;19.59;100.00;94866.53;5095195;28;20493;-79
2023/09/22 02:44:53;;;;;;;14.33;6.37;;;;;;;19.69;100.00;94876.91;5095007;28;20443;-79
2023/09/22 02:47:22;;;;;;;13.43;6.50;;;;;;;19.79;100.00;94883.59;5095472;28;20440;-79
2023/09/22 02:49:50;;;;;;;5.60;5.10;;;;;;;19.95;100.00;94882.56;5076233;28;20440;-79
2023/09/22 02:52:17;;;;;;;11.00;6.50;;;;;;;20.12;99.48;94885.78;5094891;28;20449;-80
2023/09/22 02:54:44;;;;;;;11.50;6.20;;;;;;;19.97;98.30;94879.69;5094906;28;20950;-79
2023/09/22 02:57:10;;;;;;;9.70;5.20;;;;;;;19.91;99.30;94896.41;5059551;28;20439;-79
2023/09/22 02:59:37;;;;;;;8.37;5.90;;;;;;;20.09;98.92;94902.16;5094552;28;20949;-79
2023/09/22 03:02:04;;;;;;;8.30;5.73;;;;;;;20.20;98.03;94896.31;5094849;28;20486;-78
2023/09/22 03:04:34;;;;;;;9.43;6.10;;;;;;;20.22;96.47;94894.28;5095015;28;20501;-79
2023/09/22 03:07:02;;;;;;;8.60;7.20;;;;;;;20.21;97.08;94902.47;5094759;28;20444;-79
2023/09/22 03:09:29;;;;;;;13.53;7.40;;;;;;;20.23;97.48;94914.59;5094593;28;20458;-79
2023/09/22 03:11:56;;;;;;;7.20;5.97;;;;;;;20.28;96.96;94920.22;5094432;28;20943;-80
2023/09/22 03:14:23;;;;;;;7.83;6.70;;;;;;;20.36;96.89;94921.94;5094459;28;20440;-79
2023/09/22 03:16:50;;;;;;;6.97;6.40;;;;;;;20.42;96.36;94927.34;5094259;28;20443;-79
2023/09/22 03:19:17;;;;;;;7.37;6.53;;;;;;;20.44;94.86;94929.00;5092478;28;20785;-79
2023/09/22 03:21:43;;;;;;;8.77;6.50;;;;;;;20.35;95.25;94921.09;5058342;28;20487;-79
2023/09/22 03:24:11;;;;;;;10.83;7.43;;;;;;;20.31;95.65;94921.69;5093711;28;20440;-79
2023/09/22 03:26:38;;;;;;;7.40;6.53;;;;;;;20.31;96.35;94913.69;5094227;28;20448;-79
2023/09/22 03:29:05;;;;;;;11.17;6.40;;;;;;;20.37;96.50;94918.25;5094515;28;20440;-80
2023/09/22 03:31:32;;;;;;;8.50;6.37;;;;;;;20.47;95.72;94916.13;5094316;28;20432;-80
2023/09/22 03:33:59;;;;;;;10.40;5.47;;;;;;;20.48;94.64;94919.59;5092035;28;20436;-80
2023/09/22 03:36:30;;;;;;;10.53;6.80;;;;;;;20.41;93.94;94903.56;5075143;28;20438;-80
2023/09/22 03:38:57;;;;;;;9.37;5.47;;;;;;;20.44;94.11;94905.84;5094845;28;20544;-79
2023/09/22 03:41:28;;;;;;;9.63;5.63;;;;;;;20.45;93.17;94910.16;5098766;28;20585;-79
2023/09/22 03:43:55;;;;;;;7.40;6.07;;;;;;;20.26;93.15;94908.91;5075320;28;20923;-79
2023/09/22 03:46:22;;;;;;;12.67;5.60;;;;;;;20.19;93.28;94899.19;5074255;28;21016;-79
2023/09/22 03:48:49;;;;;;;18.33;5.70;;;;;;;20.09;93.19;94899.50;5092881;28;20444;-79
2023/09/22 03:51:16;;;;;;;9.33;5.60;;;;;;;19.96;93.42;94894.03;5094550;28;20453;-79
2023/09/22 03:53:44;;;;;;;9.87;5.00;;;;;;;19.85;94.09;94890.00;5094068;28;20457;-79
2023/09/22 03:56:11;;;;;;;10.23;6.73;;;;;;;19.74;94.85;94875.34;5093153;28;20443;-79
2023/09/22 03:58:39;;;;;;;10.77;6.73;;;;;;;19.52;96.77;94886.06;5093186;28;20436;-79
2023/09/22 04:01:06;;;;;;;10.10;7.20;;;;;;;19.49;97.23;94887.25;5093624;28;20474;-79
2023/09/22 04:03:33;;;;;;;9.07;6.53;;;;;;;19.34;98.81;94889.09;5094061;28;20428;-79
2023/09/22 04:06:00;;;;;;;12.40;6.93;;;;;;;19.32;99.56;94891.94;5094148;28;20443;-79
2023/09/22 04:08:27;;;;;;;9.23;6.43;;;;;;;19.32;99.92;94885.78;5058214;28;20941;-79
2023/09/22 04:10:53;;;;;;;12.43;6.70;;;;;;;19.29;100.00;94888.81;5057975;28;20484;-78
2023/09/22 04:13:20;;;;;;;10.40;6.87;;;;;;;19.24;100.00;94893.88;5094262;28;20432;-79
2023/09/22 04:15:58;;;;;;;13.43;6.50;;;;;;;19.24;100.00;94888.56;5093777;28;20425;-79
2023/09/22 04:18:29;;;;;;;12.60;7.37;;;;;;;19.25;100.00;94895.53;5093771;28;20440;-79
2023/09/22 04:20:56;;;;;;;11.07;7.20;;;;;;;19.28;100.00;94895.16;5093533;28;20443;-77
2023/09/22 04:23:24;;;;;;;10.03;6.40;;;;;;;19.40;100.00;94891.88;5092411;28;20501;-81
2023/09/22 04:25:53;;;;;;;9.67;7.07;;;;;;;19.54;99.81;94890.22;5092930;28;20513;-79
2023/09/22 04:28:23;;;;;;;8.03;6.30;;;;;;;19.63;100.00;94899.75;5093539;28;20543;-80
2023/09/22 04:30:53;;;;;;;12.20;7.07;;;;;;;19.75;100.00;94902.78;5093248;28;20538;-80
2023/09/22 04:33:20;;;;;;;8.23;6.10;;;;;;;19.98;98.82;94900.00;5074876;28;20527;-78
2023/09/22 04:35:48;;;;;;;10.30;7.50;;;;;;;20.09;97.27;94904.81;5093123;28;20486;-80
2023/09/22 04:38:15;;;;;;;10.60;6.30;;;;;;;20.16;95.92;94897.72;5093283;28;20451;-80
2023/09/22 04:40:42;;;;;;;7.33;6.57;;;;;;;20.38;96.14;94899.41;5092916;28;20957;-79
2023/09/22 04:43:11;;;;;;;11.83;6.47;;;;;;;20.69;94.85;94909.78;5092238;28;20563;-80
2023/09/22 04:45:40;;;;;;;10.27;7.13;;;;;;;20.71;92.38;94906.91;5092409;28;20506;-80
2023/09/22 04:48:09;;;;;;;15.17;6.57;;;;;;;20.71;91.88;94904.25;5097793;28;20747;-85
2023/09/22 04:50:36;;;;;;;15.50;7.57;;;;;;;20.51;92.51;94909.38;5079782;28;20432;-83
2023/09/22 04:53:04;;;;;;;16.83;7.60;;;;;;;20.29;94.38;94918.38;5098694;28;20908;-86
2023/09/22 04:55:35;;;;;;;9.90;6.20;;;;;;;20.04;94.72;94915.22;5062941;28;20494;-87
2023/09/22 04:58:02;;;;;;;12.73;6.90;;;;;;;20.27;97.84;94918.56;5098124;28;20451;-89
2023/09/22 05:00:32;;;;;;;11.70;5.70;;;;;;;20.29;93.77;94913.03;5097821;28;20444;-84
2023/09/22 05:02:59;;;;;;;6.90;6.10;;;;;;;20.13;93.71;94890.09;5098008;28;20487;-83
2023/09/22 05:05:28;;;;;;;15.57;6.00;;;;;;;20.47;99.75;94917.97;5097719;28;20784;-82
2023/09/22 05:07:55;;;;;;;11.10;6.20;;;;;;;20.58;97.92;94922.81;5098094;28;20451;-85
2023/09/22 05:10:22;;;;;;;7.53;6.67;;;;;;;20.50;93.50;94913.06;5098270;28;20521;-85
2023/09/22 05:12:50;;;;;;;11.20;6.70;;;;;;;20.36;93.66;94917.41;5096431;28;20552;-85
2023/09/22 05:15:16;;;;;;;7.17;6.00;;;;;;;20.53;98.29;94917.19;5096531;28;21097;-86
2023/09/22 05:17:43;;;;;;;12.60;7.73;;;;;;;20.77;95.66;94915.97;5097451;28;20472;-86
2023/09/22 05:20:13;;;;;;;16.00;9.40;;;;;;;20.91;91.07;94920.44;5098314;28;20440;-84
2023/09/22 05:22:42;;;;;;;15.10;9.80;;;;;;;20.93;91.94;94919.22;5097823;28;20491;-87
2023/09/22 05:25:09;;;;;;;13.57;6.93;;;;;;;21.21;89.96;94937.06;5098126;28;20445;-86
2023/09/22 05:27:36;;;;;;;10.33;7.03;;;;;;;21.54;92.01;94935.47;5088538;28;20956;-86
2023/09/22 05:30:06;;;;;;;24.20;8.07;;;;;;;21.87;88.16;94945.53;5093832;28;20449;-86
2023/09/22 05:32:33;;;;;;;9.83;7.03;;;;;;;21.81;85.41;94951.66;5097707;28;20451;-86
2023/09/22 05:35:00;;;;;;;20.60;8.67;;;;;;;21.75;85.28;94949.78;5097907;28;20451;-81
2023/09/22 05:37:26;;;;;;;14.80;8.50;;;;;;;21.74;88.03;94956.16;5097431;28;20445;-86
2023/09/22 05:39:55;;;;;;;9.47;8.33;;;;;;;21.84;86.12;94948.59;5098263;28;20860;-87
2023/09/22 05:42:21;;;;;;;10.00;8.70;;;;;;;21.91;85.84;94955.63;5085988;28;20492;-86
2023/09/22 05:44:49;;;;;;;11.40;8.70;;;;;;;21.83;84.99;94958.44;5097452;28;20442;-86
2023/09/22 05:47:18;;;;;;;12.40;8.07;;;;;;;21.95;88.18;94951.50;5097434;28;20448;-87
2023/09/22 05:49:45;;;;;;;10.30;7.90;;;;;;;22.13;84.36;94948.34;5117581;28;20450;-87
2023/09/22 05:52:12;;;;;;;15.83;7.37;;;;;;;22.50;87.77;94963.06;5109819;28;20464;-88
2023/09/22 05:54:39;;;;;;;10.50;6.40;;;;;;;22.67;82.01;94966.22;5097348;28;20447;-87
2023/09/22 05:57:07;;;;;;;14.90;9.07;;;;;;;22.78;84.43;94973.63;5095864;28;20469;-86
2023/09/22 05:59:37;;;;;;;11.87;7.23;;;;;;;23.18;82.13;94960.34;5088948;28;20482;-87
2023/09/22 06:02:05;;;;;;;15.50;6.57;;;;;;;23.44;79.17;94963.00;5097615;28;20472;-87
2023/09/22 06:04:32;;;;;;;9.77;6.17;;;;;;;23.84;79.22;94967.50;5096206;28;20451;-88
2023/09/22 06:07:02;;;;;;;13.77;6.90;;;;;;;24.04;75.91;94960.22;5096389;28;21007;-86
2023/09/22 06:09:31;;;;;;;8.80;6.50;;;;;;;23.91;76.71;94965.63;5096342;28;20458;-87
2023/09/22 06:11:58;;;;;;;14.97;7.73;;;;;;;24.21;77.52;94968.59;5096295;28;20447;-87
2023/09/22 06:14:26;;;;;;;16.67;8.30;;;;;;;24.53;77.51;94977.56;5096861;28;20439;-88
2023/09/22 06:16:53;;;;;;;8.37;6.60;;;;;;;24.61;76.78;94975.50;5096525;28;20454;-87
2023/09/22 06:19:20;;;;;;;7.10;6.40;;;;;;;24.69;75.58;94967.19;5096144;28;20432;-87
2023/09/22 06:21:46;;;;;;;12.57;6.77;;;;;;;24.83;73.19;94977.81;5096240;28;20798;-87
2023/09/22 06:24:13;;;;;;;11.90;6.90;;;;;;;24.66;72.94;94978.34;5096517;28;20490;-86
2023/09/22 06:26:40;;;;;;;9.87;6.10;;;;;;;24.61;73.90;94982.72;5096310;28;20451;-86
2023/09/22 06:29:07;;;;;;;17.77;6.47;;;;;;;24.70;74.08;94979.56;5060948;28;20528;-85
2023/09/22 06:31:37;;;;;;;14.00;7.53;;;;;;;24.59;72.64;94982.13;5096731;28;20500;-87
2023/09/22 06:34:05;;;;;;;16.93;7.30;;;;;;;24.61;73.80;94986.22;5096396;28;20534;-86
2023/09/22 06:36:31;;;;;;;10.30;6.67;;;;;;;24.92;73.76;94989.97;5095919;28;20432;-86
2023/09/22 06:38:58;;;;;;;12.17;6.10;;;;;;;25.03;71.97;94983.94;5095599;28;20447;-85
2023/09/22 06:41:25;;;;;;;11.27;7.00;;;;;;;25.18;70.79;94991.69;5076803;28;21092;-86
2023/09/22 06:43:53;;;;;;;12.80;6.33;;;;;;;25.16;70.75;95002.66;5060005;28;20475;-86
2023/09/22 06:46:20;;;;;;;13.93;6.70;;;;;;;25.19;70.44;94988.78;5095843;28;20854;-86
2023/09/22 06:48:48;;;;;;;19.57;7.20;;;;;;;25.52;70.57;94993.06;5095219;28;20448;-87
2023/09/22 06:51:18;;;;;;;18.80;6.10;;;;;;;25.89;69.68;95004.75;5095974;28;20440;-86
2023/09/22 06:53:46;;;;;;;8.17;6.73;;;;;;;26.30;66.23;95009.47;5097298;28;20450;-85
2023/09/22 06:56:13;;;;;;;12.20;5.90;;;;;;;26.51;65.32;94998.28;5097648;28;20937;-85
2023/09/22 06:58:41;;;;;;;7.83;5.97;;;;;;;26.21;65.69;94986.59;5096397;28;20439;-86
2023/09/22 07:01:09;;;;;;;9.27;7.03;;;;;;;26.18;65.15;94993.25;5059915;28;20851;-85
2023/09/22 07:03:37;;;;;;;10.73;5.93;;;;;;;26.15;66.27;94991.03;5095662;28;20582;-85
2023/09/22 07:06:06;;;;;;;17.10;8.07;;;;;;;26.19;66.96;94992.22;5077269;28;20483;-86
2023/09/22 07:08:34;;;;;;;20.60;7.50;;;;;;;26.11;66.12;94997.06;5094981;28;20464;-85
2023/09/22 07:11:02;;;;;;;9.30;7.60;;;;;;;26.04;67.80;94997.16;5094332;28;20476;-84
2023/09/22 07:13:29;;;;;;;16.20;9.40;;;;;;;26.19;66.30;95002.16;5094345;28;20451;-86
2023/09/22 07:15:58;;;;;;;18.03;8.57;;;;;;;26.09;66.21;94999.19;5095389;28;20483;-86
2023/09/22 07:18:25;;;;;;;14.70;8.00;;;;;;;25.87;67.84;94994.22;5095945;28;20443;-86
2023/09/22 07:20:52;;;;;;;18.63;9.27;;;;;;;25.97;68.57;95000.94;5095081;28;20526;-85
2023/09/22 07:23:21;;;;;;;14.30;7.33;;;;;;;25.96;67.26;94994.72;5095990;28;20487;-86
2023/09/22 07:25:59;;;;;;;11.30;7.20;;;;;;;25.87;68.55;95009.53;5095980;28;20849;-86
2023/09/22 07:28:26;;;;;;;15.40;8.57;;;;;;;26.01;67.06;94997.56;5095747;28;20443;-84
2023/09/22 07:30:53;;;;;;;7.70;6.90;;;;;;;25.86;67.36;94997.94;5095351;28;20447;-85
2023/09/22 07:33:20;;;;;;;11.30;6.70;;;;;;;26.00;67.50;95008.56;5094698;28;20455;-87
2023/09/22 07:35:50;;;;;;;20.57;8.50;;;;;;;25.80;67.27;95004.22;5095335;28;20444;-85
2023/09/22 07:38:18;;;;;;;11.87;8.13;;;;;;;25.72;68.38;94999.09;5096303;28;20440;-86
2023/09/22 07:40:46;;;;;;;15.87;6.90;;;;;;;25.67;69.18;94990.88;5096054;28;20797;-87
2023/09/22 07:43:16;;;;;;;18.90;7.20;;;;;;;25.73;68.55;94998.06;5096093;28;20486;-86
2023/09/22 07:45:43;;;;;;;10.80;7.20;;;;;;;25.70;67.50;95001.19;5095558;28;20501;-86
2023/09/22 07:48:10;;;;;;;9.20;5.70;;;;;;;25.79;67.21;94994.50;5096006;28;20444;-86
2023/09/22 07:50:39;;;;;;;18.77;6.80;;;;;;;26.01;67.06;94986.00;5095238;28;20480;-86
2023/09/22 07:53:06;;;;;;;12.90;7.17;;;;;;;26.09;64.56;94999.19;5095047;28;20459;-87
2023/09/22 07:55:33;;;;;;;11.83;6.60;;;;;;;25.98;66.03;94987.25;5095404;28;20444;-86
2023/09/22 07:58:03;;;;;;;19.97;7.70;;;;;;;26.05;65.13;94990.72;5095277;28;20443;-86
2023/09/22 08:00:30;;;;;;;9.20;6.47;;;;;;;25.90;64.51;94985.69;5095901;28;20497;-86
2023/09/22 08:02:57;;;;;;;13.33;6.10;;;;;;;26.07;65.24;94991.31;5076213;28;20482;-84
2023/09/22 08:05:24;;;;;;;14.50;6.27;;;;;;;25.96;65.25;94983.16;5095427;28;20443;-85
2023/09/22 08:07:51;;;;;;;13.13;6.43;;;;;;;26.06;65.08;94989.69;5094625;28;20436;-86
2023/09/22 08:10:18;;;;;;;16.47;6.80;;;;;;;26.22;64.80;94986.38;5094760;28;20498;-85
2023/09/22 08:12:45;;;;;;;9.87;4.97;;;;;;;26.48;63.99;94990.66;5094614;28;20475;-86
2023/09/22 08:15:15;;;;;;;10.93;6.13;;;;;;;26.71;61.68;94992.66;5094989;28;20447;-86
2023/09/22 08:17:43;;;;;;;10.60;6.30;;;;;;;26.94;60.91;94996.50;5094828;28;20467;-85
2023/09/22 08:20:12;;;;;;;10.70;6.20;;;;;;;27.17;61.90;94997.41;5094674;28;20436;-85
2023/09/22 08:22:40;;;;;;;11.90;6.33;;;;;;;27.31;59.38;94994.53;5094942;28;20992;-85
2023/09/22 08:25:09;;;;;;;8.83;5.77;;;;;;;27.36;58.83;94990.06;5094203;28;20446;-84
2023/09/22 08:27:36;;;;;;;15.13;6.60;;;;;;;27.31;59.44;94986.44;5094535;28;20501;-85
2023/09/22 08:30:09;;;;;;;9.80;6.30;;;;;;;27.43;60.89;94985.38;5094217;28;20444;-86
2023/09/22 08:32:39;;;;;;;10.33;6.20;;;;;;;27.58;59.58;94981.44;5094013;28;21006;-85
2023/09/22 08:35:07;;;;;;;9.80;5.77;;;;;;;27.65;58.48;94982.16;5094178;28;20444;-85
2023/09/22 08:37:36;;;;;;;13.53;6.20;;;;;;;27.70;58.47;94976.88;5093592;28;20463;-85
2023/09/22 08:40:11;;;;;;;14.30;8.10;;;;;;;27.65;56.75;94982.16;5093397;28;20444;-86
2023/09/22 08:42:41;;;;;;;8.67;6.90;;;;;;;27.40;57.51;94972.38;5094017;28;20465;-85
2023/09/22 08:45:08;;;;;;;14.70;6.03;;;;;;;27.43;59.18;94965.69;5093692;28;20442;-84
2023/09/22 08:47:39;;;;;;;6.10;4.67;;;;;;;27.42;59.68;94964.88;5093344;28;20436;-85
2023/09/22 08:50:11;;;;;;;10.47;6.10;;;;;;;27.20;57.95;94952.22;5093641;28;20468;-86
2023/09/22 08:52:43;;;;;;;11.30;6.13;;;;;;;27.38;58.26;94962.88;5094168;28;20969;-85
2023/09/22 08:55:11;;;;;;;11.43;6.23;;;;;;;27.42;59.77;94951.41;5093474;28;20443;-86
2023/09/22 08:57:40;;;;;;;16.30;7.13;;;;;;;27.38;59.06;94949.41;5093503;28;20482;-85
2023/09/22 09:00:12;;;;;;;13.87;6.67;;;;;;;27.41;58.63;94944.38;5094555;28;20440;-85
2023/09/22 09:02:40;;;;;;;9.97;6.77;;;;;;;27.49;59.23;94948.63;5044360;28;20443;-85
2023/09/22 09:05:22;;;;;;;9.63;6.47;;;;;;;27.48;60.29;94943.47;5093914;28;20487;-85
2023/09/22 09:07:50;;;;;;;13.03;6.73;;;;;;;27.54;59.01;94943.34;5058957;28;20805;-85
2023/09/22 09:10:30;;;;;;;13.83;6.07;;;;;;;27.66;58.89;94935.28;5094659;28;20973;-86
2023/09/22 09:13:01;;;;;;;10.00;5.80;;;;;;;27.72;59.81;94928.94;5093697;28;20448;-85
2023/09/22 09:15:30;;;;;;;15.33;7.03;;;;;;;27.79;58.83;94926.97;5093073;28;20927;-86
2023/09/22 09:18:05;;;;;;;15.07;7.10;;;;;;;27.74;58.67;94922.25;5093314;28;20440;-85
2023/09/22 09:20:33;;;;;;;18.43;6.37;;;;;;;27.82;58.51;94920.28;5057509;28;20436;-85
2023/09/22 09:23:01;;;;;;;8.50;6.27;;;;;;;27.83;59.60;94919.22;5092567;28;20466;-85
2023/09/22 09:25:30;;;;;;;13.10;6.00;;;;;;;27.94;59.39;94921.06;5024273;28;20487;-85
2023/09/22 09:28:02;;;;;;;11.60;5.93;;;;;;;28.11;59.41;94910.38;5092866;28;20489;-85
2023/09/22 09:30:31;;;;;;;10.93;6.63;;;;;;;28.17;58.53;94904.84;5092600;28;20447;-85
2023/09/22 09:33:09;;;;;;;17.90;6.10;;;;;;;28.25;58.16;94901.78;5095934;28;20516;-85
2023/09/22 09:35:37;;;;;;;22.77;7.03;;;;;;;28.39;58.16;94902.34;5096734;28;20450;-85
2023/09/22 09:38:04;;;;;;;14.13;6.30;;;;;;;28.40;59.34;94897.75;5078940;28;20439;-85
2023/09/22 09:40:32;;;;;;;11.03;5.73;;;;;;;28.37;59.08;94896.38;5097235;28;20471;-86
2023/09/22 09:43:01;;;;;;;16.70;6.70;;;;;;;28.34;60.15;94891.44;5097989;28;20440;-84
2023/09/22 09:45:31;;;;;;;11.70;6.73;;;;;;;28.28;59.15;94887.81;5098002;28;20451;-86
2023/09/22 09:48:00;;;;;;;19.67;7.10;;;;;;;28.24;59.41;94878.56;5097883;28;20444;-85
2023/09/22 09:50:31;;;;;;;8.40;5.80;;;;;;;28.11;59.54;94888.78;5077933;28;20927;-84
2023/09/22 09:53:04;;;;;;;10.00;5.67;;;;;;;27.98;59.98;94884.47;5096875;28;20465;-85
2023/09/22 09:55:33;;;;;;;12.07;6.60;;;;;;;28.03;61.67;94877.28;5096880;28;20992;-85
2023/09/22 09:58:02;;;;;;;10.63;7.53;;;;;;;28.14;61.17;94867.53;5096750;28;20935;-85
2023/09/22 10:00:35;;;;;;;10.60;7.43;;;;;;;28.16;60.10;94876.22;5097757;28;20825;-83
2023/09/22 10:03:04;;;;;;;18.27;7.03;;;;;;;28.14;59.46;94878.31;5096175;28;20440;-85
2023/09/22 10:05:34;;;;;;;13.63;6.57;;;;;;;28.13;60.35;94878.56;5099711;28;20451;-85
2023/09/22 10:08:01;;;;;;;13.83;6.30;;;;;;;28.08;59.83;94873.91;5099128;28;20462;-85
2023/09/22 10:10:30;;;;;;;10.40;6.27;;;;;;;28.12;60.78;94875.06;5096079;28;20562;-82
2023/09/22 10:12:57;;;;;;;13.73;6.90;;;;;;;28.14;60.61;94872.13;5095574;28;20440;-85
2023/09/22 10:15:52;;;;;;;12.70;6.67;;;;;;;28.20;61.38;94865.75;5095936;28;20817;-85
2023/09/22 10:18:19;;;;;;;16.60;6.47;;;;;;;28.17;60.62;94871.63;5095802;28;20488;-85
2023/09/22 10:20:48;;;;;;;8.73;7.70;;;;;;;28.20;61.15;94866.56;5094946;28;20953;-85
2023/09/22 10:23:17;;;;;;;13.97;7.63;;;;;;;28.27;60.04;94869.16;5095456;28;20440;-84
2023/09/22 10:25:44;;;;;;;10.63;5.83;;;;;;;28.34;60.02;94867.16;5095981;28;20529;-86
2023/09/22 10:28:27;;;;;;;20.07;6.60;;;;;;;28.32;58.51;94864.66;5096015;28;20927;-84
2023/09/22 10:31:04;;;;;;;12.90;7.57;;;;;;;28.30;59.66;94857.88;5096078;28;20438;-85
2023/09/22 10:33:32;;;;;;;11.37;6.90;;;;;;;28.37;58.79;94856.69;5095961;28;20447;-85
2023/09/22 10:36:01;;;;;;;12.23;7.23;;;;;;;28.29;59.22;94848.97;5095652;28;20443;-85
2023/09/22 10:38:28;;;;;;;9.10;6.40;;;;;;;28.33;60.85;94846.59;5096069;28;20496;-85
2023/09/22 10:41:07;;;;;;;14.97;6.57;;;;;;;28.43;59.69;94844.09;5095782;28;20455;-85
2023/09/22 10:43:34;;;;;;;9.23;6.90;;;;;;;28.50;60.07;94850.16;5095053;28;20443;-85
2023/09/22 10:46:01;;;;;;;17.73;7.33;;;;;;;28.58;58.98;94841.66;5095205;28;20439;-85
2023/09/22 10:48:34;;;;;;;14.50;7.30;;;;;;;28.57;58.34;94844.59;5094833;28;20447;-85
2023/09/22 10:51:03;;;;;;;13.17;6.33;;;;;;;28.58;58.33;94841.66;5059690;28;20448;-85
2023/09/22 10:53:33;;;;;;;22.37;7.63;;;;;;;28.58;57.00;94830.88;5094606;28;20496;-86
2023/09/22 10:56:03;;;;;;;13.37;6.17;;;;;;;28.62;56.96;94825.78;5095150;28;20444;-85
2023/09/22 10:58:29;;;;;;;19.03;7.30;;;;;;;28.70;57.54;94822.72;5094690;28;20436;-85
2023/09/22 11:00:58;;;;;;;16.80;6.63;;;;;;;28.79;57.33;94820.41;5094948;28;20439;-86
2023/09/22 11:03:25;;;;;;;10.73;6.63;;;;;;;28.88;56.47;94822.50;5058779;28;20473;-86
2023/09/22 11:06:00;;;;;;;10.90;6.70;;;;;;;28.86;56.65;94807.59;5094572;28;20798;-86
2023/09/22 11:08:28;;;;;;;13.47;5.83;;;;;;;28.86;57.55;94810.28;5094669;28;20443;-85
2023/09/22 11:10:57;;;;;;;11.67;7.20;;;;;;;28.82;55.34;94801.00;5094501;28;20474;-86
2023/09/22 11:13:24;;;;;;;9.70;6.13;;;;;;;28.88;56.77;94806.28;5094096;28;20432;-85
2023/09/22 11:15:56;;;;;;;18.27;7.53;;;;;;;29.01;57.44;94805.16;5075311;28;20444;-86
2023/09/22 11:18:24;;;;;;;14.37;6.57;;;;;;;29.08;55.82;94804.97;5094291;28;20444;-86
2023/09/22 11:20:56;;;;;;;13.87;7.07;;;;;;;29.01;55.98;94797.03;5093991;28;20443;-85
2023/09/22 11:23:24;;;;;;;20.13;6.90;;;;;;;29.04;53.99;94799.25;5093738;28;20889;-85
2023/09/22 11:25:57;;;;;;;16.70;6.40;;;;;;;29.06;52.93;94788.19;5094463;28;20483;-85
2023/09/22 11:28:24;;;;;;;14.53;7.07;;;;;;;29.10;54.48;94789.31;5059154;28;20465;-85
2023/09/22 11:30:51;;;;;;;13.87;5.90;;;;;;;29.11;54.31;94785.56;5094273;28;20440;-80
2023/09/22 11:33:18;;;;;;;9.87;7.20;;;;;;;29.19;54.04;94790.53;5093542;28;20447;-79